createdAt,value
2023-05-06T00:00:14.630Z,84
2023-05-06T00:01:21.270Z,84
2023-05-06T00:01:21.726Z,84
2023-05-06T00:02:28.947Z,84
2023-05-06T00:03:35.792Z,84
2023-05-06T00:03:36.099Z,84
2023-05-06T00:04:42.588Z,84
2023-05-06T00:05:49.134Z,84
2023-05-06T00:05:49.766Z,84
2023-05-06T00:06:56.818Z,84
2023-05-06T00:09:10.959Z,85
2023-05-06T00:10:17.597Z,85
2023-05-06T00:10:17.611Z,85
2023-05-06T00:11:25.810Z,85
2023-05-06T00:12:31.248Z,85
2023-05-06T00:12:31.742Z,85
2023-05-06T00:13:38.908Z,85
2023-05-06T00:14:45.500Z,85
2023-05-06T00:14:45.964Z,85
2023-05-06T00:15:52.555Z,85
2023-05-06T00:16:59.304Z,85
2023-05-06T00:16:59.680Z,85
2023-05-06T00:18:06.867Z,85
2023-05-06T00:19:13.318Z,85
2023-05-06T00:19:13.923Z,85
2023-05-06T00:20:20.964Z,85
2023-05-06T00:21:27.561Z,85
2023-05-06T00:22:34.697Z,85
2023-05-06T00:23:41.747Z,85
2023-05-06T00:24:48.874Z,85
2023-05-06T00:25:55.996Z,85
2023-05-06T00:27:02.586Z,85
2023-05-06T00:28:09.736Z,85
2023-05-06T00:29:16.786Z,85
2023-05-06T00:30:23.849Z,85
2023-05-06T00:31:31.050Z,85
2023-05-06T00:32:37.696Z,85
2023-05-06T00:32:37.750Z,85
2023-05-06T00:33:44.692Z,85
2023-05-06T00:34:51.803Z,85
2023-05-06T00:35:58.948Z,85
2023-05-06T00:37:06.045Z,85
2023-05-06T00:38:12.579Z,85
2023-05-06T00:39:19.789Z,85
2023-05-06T00:40:26.835Z,85
2023-05-06T00:41:33.913Z,85
2023-05-06T00:42:40.980Z,85
2023-05-06T00:43:47.653Z,85
2023-05-06T00:44:54.796Z,85
2023-05-06T00:46:01.869Z,85
2023-05-06T00:47:08.927Z,85
2023-05-06T00:48:16.231Z,85
2023-05-06T00:50:29.806Z,85
2023-05-06T00:51:36.810Z,85
2023-05-06T00:52:43.928Z,85
2023-05-06T00:53:51.035Z,85
2023-05-06T00:54:58.155Z,85
2023-05-06T00:56:04.726Z,85
2023-05-06T00:57:11.780Z,85
2023-05-06T00:58:18.967Z,85
2023-05-06T00:59:25.528Z,85
2023-05-06T01:00:32.614Z,85
2023-05-06T01:01:39.826Z,85
2023-05-06T01:02:48.082Z,85
2023-05-06T01:03:54.145Z,85
2023-05-06T01:05:00.562Z,85
2023-05-06T01:06:07.665Z,85
2023-05-06T01:07:14.757Z,85
2023-05-06T01:08:21.878Z,85
2023-05-06T01:09:29.005Z,85
2023-05-06T01:10:35.540Z,85
2023-05-06T01:11:42.650Z,85
2023-05-06T01:12:49.808Z,85
2023-05-06T01:13:56.848Z,85
2023-05-06T01:15:04.445Z,85
2023-05-06T01:16:10.594Z,85
2023-05-06T01:17:17.795Z,85
2023-05-06T01:18:24.770Z,86
2023-05-06T01:19:31.888Z,86
2023-05-06T01:20:38.956Z,86
2023-05-06T01:21:45.651Z,86
2023-05-06T01:22:52.640Z,86
2023-05-06T01:23:59.776Z,86
2023-05-06T01:25:07.044Z,86
2023-05-06T01:26:13.958Z,86
2023-05-06T01:27:20.520Z,86
2023-05-06T01:28:27.664Z,86
2023-05-06T01:29:34.803Z,86
2023-05-06T01:31:48.987Z,86
2023-05-06T01:32:55.618Z,86
2023-05-06T01:34:02.728Z,86
2023-05-06T01:35:09.967Z,86
2023-05-06T01:36:16.885Z,86
2023-05-06T01:37:23.968Z,86
2023-05-06T01:38:30.561Z,86
2023-05-06T01:39:37.680Z,86
2023-05-06T01:40:44.799Z,86
2023-05-06T01:41:51.900Z,86
2023-05-06T01:42:58.991Z,86
2023-05-06T01:44:05.625Z,86
2023-05-06T01:45:12.714Z,86
2023-05-06T01:46:19.844Z,86
2023-05-06T01:47:26.901Z,86
2023-05-06T01:48:34.074Z,86
2023-05-06T01:49:40.602Z,86
2023-05-06T01:50:47.734Z,86
2023-05-06T01:51:54.852Z,86
2023-05-06T01:53:01.946Z,86
2023-05-06T01:54:08.968Z,86
2023-05-06T01:55:15.613Z,86
2023-05-06T01:56:22.719Z,86
2023-05-06T01:57:29.813Z,86
2023-05-06T01:58:36.965Z,86
2023-05-06T01:59:44.022Z,86
2023-05-06T02:00:50.555Z,86
2023-05-06T02:01:57.787Z,86
2023-05-06T02:03:04.860Z,86
2023-05-06T02:04:11.912Z,86
2023-05-06T02:05:19.018Z,86
2023-05-06T02:06:25.632Z,86
2023-05-06T02:07:32.706Z,86
2023-05-06T02:08:39.829Z,86
2023-05-06T02:09:47.002Z,86
2023-05-06T02:10:53.986Z,86
2023-05-06T02:13:07.798Z,87
2023-05-06T02:14:14.875Z,86
2023-05-06T02:15:21.963Z,86
2023-05-06T02:16:29.129Z,87
2023-05-06T02:17:35.666Z,87
2023-05-06T02:18:43.255Z,87
2023-05-06T02:19:49.895Z,86
2023-05-06T02:20:56.962Z,87
2023-05-06T02:22:03.504Z,86
2023-05-06T02:23:11.170Z,86
2023-05-06T02:24:17.311Z,86
2023-05-06T02:24:18.125Z,86
2023-05-06T02:25:24.883Z,87
2023-05-06T02:26:31.905Z,87
2023-05-06T02:27:38.554Z,87
2023-05-06T02:27:38.606Z,87
2023-05-06T02:28:45.707Z,87
2023-05-06T02:30:59.866Z,87
2023-05-06T02:32:06.452Z,87
2023-05-06T02:33:13.563Z,86
2023-05-06T02:34:20.126Z,87
2023-05-06T02:34:20.625Z,87
2023-05-06T02:35:27.876Z,87
2023-05-06T02:36:34.906Z,87
2023-05-06T02:38:48.503Z,87
2023-05-06T02:38:48.578Z,87
2023-05-06T02:39:55.673Z,87
2023-05-06T02:41:02.740Z,87
2023-05-06T02:42:11.024Z,87
2023-05-06T02:43:16.992Z,87
2023-05-06T02:44:23.588Z,87
2023-05-06T02:46:37.766Z,87
2023-05-06T02:47:44.938Z,87
2023-05-06T02:52:12.775Z,87
2023-05-06T02:54:27.088Z,87
2023-05-06T02:55:33.550Z,87
2023-05-06T02:56:40.635Z,87
2023-05-06T02:57:47.820Z,87
2023-05-06T02:58:54.982Z,87
2023-05-06T03:00:02.019Z,87
2023-05-06T03:01:08.623Z,87
2023-05-06T03:02:15.724Z,87
2023-05-06T03:03:22.805Z,87
2023-05-06T03:04:29.953Z,87
2023-05-06T03:05:37.109Z,87
2023-05-06T03:06:43.587Z,87
2023-05-06T03:07:50.675Z,87
2023-05-06T03:08:57.794Z,87
2023-05-06T03:10:04.934Z,87
2023-05-06T03:11:11.571Z,87
2023-05-06T03:12:18.595Z,87
2023-05-06T03:13:25.681Z,87
2023-05-06T03:14:32.864Z,87
2023-05-06T03:15:39.920Z,87
2023-05-06T03:16:47.079Z,87
2023-05-06T03:17:53.652Z,87
2023-05-06T03:21:14.454Z,87
2023-05-06T03:22:21.669Z,87
2023-05-06T03:23:28.634Z,87
2023-05-06T03:24:35.736Z,87
2023-05-06T03:25:42.788Z,87
2023-05-06T03:26:49.919Z,87
2023-05-06T03:27:57.094Z,87
2023-05-06T03:31:17.971Z,87
2023-05-06T03:32:24.443Z,87
2023-05-06T03:35:45.748Z,87
2023-05-06T03:37:59.962Z,87
2023-05-06T03:39:06.504Z,87
2023-05-06T03:40:13.127Z,87
2023-05-06T03:41:20.694Z,87
2023-05-06T03:42:27.899Z,87
2023-05-06T03:43:34.996Z,87
2023-05-06T03:44:41.590Z,87
2023-05-06T03:45:48.682Z,87
2023-05-06T03:46:55.743Z,87
2023-05-06T03:48:02.377Z,87
2023-05-06T03:48:02.866Z,87
2023-05-06T03:49:09.957Z,87
2023-05-06T03:50:16.599Z,87
2023-05-06T03:53:37.406Z,87
2023-05-06T03:54:44.446Z,87
2023-05-06T03:54:44.456Z,87
2023-05-06T03:55:51.515Z,87
2023-05-06T03:55:51.563Z,87
2023-05-06T03:56:58.696Z,87
2023-05-06T03:58:05.771Z,87
2023-05-06T04:05:54.448Z,87
2023-05-06T04:08:08.738Z,87
2023-05-06T04:09:15.784Z,87
2023-05-06T04:11:29.991Z,87
2023-05-06T04:11:30.041Z,87
2023-05-06T04:12:36.656Z,87
2023-05-06T04:13:43.630Z,87
2023-05-06T04:18:11.631Z,87
2023-05-06T04:19:18.665Z,87
2023-05-06T05:03:58.734Z,88
2023-05-06T05:08:26.636Z,88
2023-05-06T05:08:26.745Z,88
2023-05-06T05:10:46.512Z,88
2023-05-06T05:11:47.971Z,88
2023-05-06T05:12:54.701Z,88
2023-05-06T05:25:12.018Z,88
2023-05-06T05:27:25.910Z,88
2023-05-06T05:29:40.133Z,88
2023-05-06T05:33:00.862Z,88
2023-05-06T05:33:00.970Z,88
2023-05-06T05:34:07.560Z,88
2023-05-06T05:44:10.889Z,88
2023-05-06T05:45:18.007Z,88
2023-05-06T05:46:24.650Z,88
2023-05-06T05:46:24.715Z,88
2023-05-06T05:47:31.204Z,88
2023-05-06T05:47:31.724Z,88
2023-05-06T06:22:11.030Z,87
2023-05-06T06:22:11.049Z,87
2023-05-06T06:23:15.936Z,87
2023-05-06T06:51:11.066Z,88
2023-05-06T06:52:17.592Z,88
2023-05-06T07:00:06.809Z,85
2023-05-06T07:01:13.934Z,85
2023-05-06T07:02:20.440Z,84
2023-05-06T07:03:27.636Z,84
2023-05-06T07:04:34.714Z,83
2023-05-06T07:05:41.784Z,83
2023-05-06T07:06:48.417Z,83
2023-05-06T07:06:48.888Z,83
2023-05-06T07:07:56.171Z,83
2023-05-06T07:09:02.549Z,82
2023-05-06T07:10:09.697Z,83
2023-05-06T07:11:16.402Z,83
2023-05-06T07:11:16.786Z,83
2023-05-06T07:12:23.904Z,83
2023-05-06T07:13:30.992Z,83
2023-05-06T07:14:39.714Z,82
2023-05-06T07:15:44.217Z,82
2023-05-06T07:15:44.700Z,82
2023-05-06T07:16:51.885Z,82
2023-05-06T07:17:58.988Z,82
2023-05-06T07:20:12.078Z,81
2023-05-06T07:20:12.688Z,81
2023-05-06T07:21:19.214Z,81
2023-05-06T07:21:19.714Z,81
2023-05-06T07:22:26.795Z,81
2023-05-06T07:25:47.627Z,81
2023-05-06T07:26:54.746Z,81
2023-05-06T07:28:01.827Z,81
2023-05-06T07:29:08.427Z,81
2023-05-06T07:29:08.546Z,81
2023-05-06T07:31:22.710Z,81
2023-05-06T07:33:36.894Z,80
2023-05-06T07:35:50.499Z,79
2023-05-06T07:38:04.761Z,79
2023-05-06T07:39:11.347Z,78
2023-05-06T07:40:18.985Z,79
2023-05-06T07:41:25.532Z,79
2023-05-06T07:42:32.625Z,79
2023-05-06T07:43:39.790Z,79
2023-05-06T07:44:46.866Z,79
2023-05-06T07:47:00.658Z,79
2023-05-06T07:48:07.806Z,79
2023-05-06T07:49:14.757Z,79
2023-05-06T07:50:21.886Z,79
2023-05-06T07:51:28.974Z,78
2023-05-06T07:52:35.619Z,78
2023-05-06T07:53:42.620Z,77
2023-05-06T07:54:49.856Z,77
2023-05-06T07:57:03.964Z,77
2023-05-06T07:59:17.166Z,76
2023-05-06T07:59:17.707Z,76
2023-05-06T08:02:39.170Z,76
2023-05-06T08:05:59.786Z,76
2023-05-06T08:07:06.887Z,76
2023-05-06T08:08:13.968Z,75
2023-05-06T08:09:23.262Z,75
2023-05-06T08:10:27.846Z,75
2023-05-06T08:11:34.822Z,74
2023-05-06T08:12:42.004Z,74
2023-05-06T08:13:49.025Z,74
2023-05-06T08:14:55.630Z,74
2023-05-06T08:17:09.821Z,74
2023-05-06T08:18:22.296Z,74
2023-05-06T08:19:24.064Z,73
2023-05-06T08:20:30.616Z,73
2023-05-06T08:21:37.716Z,73
2023-05-06T08:22:44.819Z,73
2023-05-06T08:23:51.893Z,73
2023-05-06T08:24:58.526Z,72
2023-05-06T08:26:05.651Z,72
2023-05-06T08:27:12.690Z,72
2023-05-06T08:28:19.829Z,72
2023-05-06T08:29:26.917Z,72
2023-05-06T08:30:33.984Z,71
2023-05-06T08:31:40.634Z,71
2023-05-06T08:32:47.723Z,70
2023-05-06T08:35:01.990Z,69
2023-05-06T08:36:08.548Z,69
2023-05-06T08:37:15.625Z,69
2023-05-06T08:38:22.720Z,69
2023-05-06T08:39:29.838Z,70
2023-05-06T08:40:37.491Z,70
2023-05-06T08:41:43.487Z,69
2023-05-06T08:42:50.605Z,69
2023-05-06T08:43:57.740Z,69
2023-05-06T08:45:04.864Z,69
2023-05-06T08:46:11.947Z,68
2023-05-06T08:47:18.540Z,69
2023-05-06T08:48:25.647Z,69
2023-05-06T08:49:32.771Z,69
2023-05-06T08:50:39.846Z,69
2023-05-06T08:51:46.967Z,69
2023-05-06T08:52:53.516Z,68
2023-05-06T08:54:00.633Z,68
2023-05-06T08:55:07.802Z,68
2023-05-06T08:56:14.877Z,68
2023-05-06T08:57:21.976Z,68
2023-05-06T08:58:28.572Z,67
2023-05-06T08:59:35.638Z,67
2023-05-06T09:00:42.738Z,67
2023-05-06T09:01:49.854Z,67
2023-05-06T09:02:57.107Z,67
2023-05-06T09:04:03.517Z,67
2023-05-06T09:05:10.961Z,66
2023-05-06T09:06:17.799Z,67
2023-05-06T09:07:24.870Z,67
2023-05-06T09:08:32.039Z,66
2023-05-06T09:09:38.586Z,66
2023-05-06T09:10:45.698Z,66
2023-05-06T09:11:52.748Z,66
2023-05-06T09:12:59.985Z,66
2023-05-06T09:14:07.007Z,66
2023-05-06T09:15:13.793Z,66
2023-05-06T09:16:20.702Z,66
2023-05-06T09:17:27.834Z,66
2023-05-06T09:18:34.878Z,66
2023-05-06T09:19:41.479Z,65
2023-05-06T09:20:48.592Z,65
2023-05-06T09:21:55.700Z,65
2023-05-06T09:24:09.888Z,64
2023-05-06T09:25:16.998Z,64
2023-05-06T09:26:23.565Z,64
2023-05-06T09:27:31.216Z,63
2023-05-06T09:28:37.809Z,63
2023-05-06T09:29:44.910Z,63
2023-05-06T09:30:51.482Z,63
2023-05-06T09:31:58.598Z,63
2023-05-06T09:33:05.734Z,63
2023-05-06T09:34:12.807Z,63
2023-05-06T09:35:19.970Z,63
2023-05-06T09:36:26.501Z,62
2023-05-06T09:37:33.595Z,62
2023-05-06T09:38:41.537Z,62
2023-05-06T09:39:49.908Z,62
2023-05-06T09:40:55.533Z,62
2023-05-06T09:42:01.478Z,62
2023-05-06T09:43:08.601Z,61
2023-05-06T09:45:22.807Z,61
2023-05-06T09:46:29.972Z,61
2023-05-06T09:47:36.613Z,61
2023-05-06T09:48:43.608Z,61
2023-05-06T09:49:50.746Z,61
2023-05-06T09:50:59.992Z,61
2023-05-06T09:52:04.940Z,61
2023-05-06T09:53:11.490Z,61
2023-05-06T09:54:18.641Z,60
2023-05-06T09:55:25.764Z,60
2023-05-06T09:56:32.946Z,60
2023-05-06T09:57:39.996Z,60
2023-05-06T09:58:46.560Z,60
2023-05-06T09:59:53.605Z,60
2023-05-06T10:01:00.685Z,60
2023-05-06T10:02:10.963Z,60
2023-05-06T10:03:15.058Z,59
2023-05-06T10:05:28.688Z,59
2023-05-06T10:06:35.729Z,59
2023-05-06T10:07:42.966Z,59
2023-05-06T10:08:49.938Z,58
2023-05-06T10:09:56.583Z,58
2023-05-06T10:11:03.628Z,58
2023-05-06T10:12:11.128Z,58
2023-05-06T10:13:17.918Z,58
2023-05-06T10:14:24.988Z,58
2023-05-06T10:15:31.561Z,58
2023-05-06T10:16:38.712Z,58
2023-05-06T10:17:45.856Z,58
2023-05-06T10:18:52.841Z,57
2023-05-06T10:19:59.457Z,56
2023-05-06T10:21:06.576Z,56
2023-05-06T10:22:13.655Z,57
2023-05-06T10:23:20.735Z,56
2023-05-06T10:24:27.879Z,57
2023-05-06T10:25:34.420Z,57
2023-05-06T10:26:41.539Z,57
2023-05-06T10:27:48.710Z,57
2023-05-06T10:28:55.791Z,57
2023-05-06T10:30:02.842Z,57
2023-05-06T10:31:09.455Z,57
2023-05-06T10:32:16.556Z,57
2023-05-06T10:33:23.769Z,57
2023-05-06T10:34:30.741Z,56
2023-05-06T10:35:37.927Z,56
2023-05-06T10:36:44.429Z,56
2023-05-06T10:37:51.548Z,56
2023-05-06T10:38:58.663Z,56
2023-05-06T10:40:05.853Z,56
2023-05-06T10:41:12.858Z,57
2023-05-06T10:42:19.497Z,57
2023-05-06T10:43:26.584Z,57
2023-05-06T10:44:33.644Z,57
2023-05-06T10:46:47.925Z,57
2023-05-06T10:47:55.058Z,57
2023-05-06T10:49:01.539Z,56
2023-05-06T10:50:08.717Z,56
2023-05-06T10:51:15.785Z,56
2023-05-06T10:52:22.897Z,56
2023-05-06T10:53:29.494Z,56
2023-05-06T10:54:36.612Z,57
2023-05-06T10:55:43.741Z,57
2023-05-06T10:56:50.770Z,57
2023-05-06T10:57:57.961Z,57
2023-05-06T10:59:04.552Z,57
2023-05-06T11:00:11.564Z,57
2023-05-06T11:01:18.698Z,57
2023-05-06T11:02:25.895Z,57
2023-05-06T11:03:33.047Z,57
2023-05-06T11:04:39.484Z,57
2023-05-06T11:05:46.632Z,57
2023-05-06T11:06:53.678Z,57
2023-05-06T11:08:00.811Z,57
2023-05-06T11:09:07.913Z,57
2023-05-06T11:10:14.699Z,57
2023-05-06T11:11:21.584Z,57
2023-05-06T11:13:35.835Z,57
2023-05-06T11:14:42.884Z,57
2023-05-06T11:15:49.570Z,57
2023-05-06T11:16:56.784Z,57
2023-05-06T11:18:03.726Z,57
2023-05-06T11:19:10.824Z,57
2023-05-06T11:20:17.922Z,58
2023-05-06T11:21:24.517Z,57
2023-05-06T11:22:31.611Z,56
2023-05-06T11:23:38.782Z,56
2023-05-06T11:24:45.842Z,56
2023-05-06T11:25:52.935Z,55
2023-05-06T11:28:06.648Z,55
2023-05-06T11:29:13.727Z,55
2023-05-06T11:30:20.857Z,55
2023-05-06T11:31:27.465Z,55
2023-05-06T11:32:34.549Z,55
2023-05-06T11:33:41.597Z,54
2023-05-06T11:34:48.792Z,54
2023-05-06T11:35:55.865Z,54
2023-05-06T11:37:02.668Z,54
2023-05-06T11:38:09.601Z,54
2023-05-06T11:39:16.664Z,54
2023-05-06T11:40:23.752Z,54
2023-05-06T11:41:30.845Z,54
2023-05-06T11:42:37.461Z,55
2023-05-06T11:43:44.544Z,55
2023-05-06T11:44:51.653Z,54
2023-05-06T11:45:58.818Z,54
2023-05-06T11:47:05.905Z,54
2023-05-06T11:48:12.931Z,54
2023-05-06T11:49:19.565Z,55
2023-05-06T11:50:26.699Z,55
2023-05-06T11:51:34.261Z,54
2023-05-06T11:52:40.861Z,54
2023-05-06T11:53:47.450Z,54
2023-05-06T11:54:54.637Z,54
2023-05-06T11:56:01.664Z,54
2023-05-06T11:57:08.849Z,54
2023-05-06T11:58:16.017Z,54
2023-05-06T11:59:22.474Z,54
2023-05-06T12:00:29.635Z,53
2023-05-06T12:01:36.647Z,53
2023-05-06T12:02:43.838Z,53
2023-05-06T12:03:51.017Z,53
2023-05-06T12:04:57.570Z,53
2023-05-06T12:06:04.582Z,53
2023-05-06T12:07:11.677Z,53
2023-05-06T12:09:25.898Z,54
2023-05-06T12:10:32.456Z,54
2023-05-06T12:11:39.579Z,54
2023-05-06T12:12:46.708Z,54
2023-05-06T12:13:53.761Z,54
2023-05-06T12:15:00.885Z,54
2023-05-06T12:16:07.521Z,54
2023-05-06T12:17:14.554Z,54
2023-05-06T12:18:21.669Z,54
2023-05-06T12:19:28.796Z,53
2023-05-06T12:20:35.972Z,53
2023-05-06T12:21:42.479Z,53
2023-05-06T12:22:49.617Z,53
2023-05-06T12:23:56.854Z,53
2023-05-06T12:27:17.514Z,52
2023-05-06T12:28:24.622Z,52
2023-05-06T12:29:31.752Z,52
2023-05-06T12:30:38.838Z,52
2023-05-06T12:31:45.439Z,52
2023-05-06T12:32:52.532Z,52
2023-05-06T12:34:01.190Z,52
2023-05-06T12:35:06.781Z,52
2023-05-06T12:36:13.837Z,52
2023-05-06T12:37:21.192Z,52
2023-05-06T12:38:27.504Z,52
2023-05-06T12:39:34.631Z,52
2023-05-06T12:41:48.823Z,52
2023-05-06T12:42:55.436Z,52
2023-05-06T12:44:02.529Z,52
2023-05-06T12:45:09.661Z,51
2023-05-06T12:46:16.811Z,51
2023-05-06T12:47:23.904Z,51
2023-05-06T12:48:30.405Z,51
2023-05-06T12:50:44.696Z,51
2023-05-06T12:51:51.701Z,51
2023-05-06T12:52:58.834Z,51
2023-05-06T12:54:05.419Z,51
2023-05-06T12:56:19.682Z,51
2023-05-06T12:57:26.743Z,51
2023-05-06T12:58:33.828Z,51
2023-05-06T12:59:40.412Z,51
2023-05-06T13:00:47.723Z,51
2023-05-06T13:01:54.667Z,51
2023-05-06T13:06:22.533Z,49
2023-05-06T13:07:29.674Z,49
2023-05-06T13:08:36.758Z,49
2023-05-06T13:09:43.840Z,49
2023-05-06T13:10:50.411Z,49
2023-05-06T13:11:57.595Z,49
2023-05-06T13:13:04.729Z,49
2023-05-06T13:14:11.734Z,49
2023-05-06T13:15:18.963Z,50
2023-05-06T13:16:25.498Z,50
2023-05-06T13:17:32.567Z,50
2023-05-06T13:18:39.682Z,50
2023-05-06T13:19:46.778Z,50
2023-05-06T13:20:53.349Z,51
2023-05-06T13:22:00.845Z,51
2023-05-06T13:23:07.572Z,51
2023-05-06T13:24:14.711Z,51
2023-05-06T13:25:21.795Z,51
2023-05-06T13:26:28.903Z,52
2023-05-06T13:27:35.514Z,52
2023-05-06T13:28:42.567Z,52
2023-05-06T13:29:49.695Z,53
2023-05-06T13:32:04.355Z,53
2023-05-06T13:33:10.450Z,53
2023-05-06T13:34:17.636Z,54
2023-05-06T13:35:24.688Z,54
2023-05-06T13:36:31.780Z,54
2023-05-06T13:37:38.396Z,54
2023-05-06T13:38:45.509Z,54
2023-05-06T13:39:52.574Z,54
2023-05-06T13:40:59.750Z,54
2023-05-06T13:42:08.336Z,54
2023-05-06T13:43:13.352Z,54
2023-05-06T13:44:20.465Z,55
2023-05-06T13:45:27.676Z,55
2023-05-06T13:46:34.797Z,55
2023-05-06T13:47:41.905Z,55
2023-05-06T13:48:48.417Z,55
2023-05-06T13:49:55.533Z,55
2023-05-06T13:51:02.637Z,56
2023-05-06T13:52:11.198Z,56
2023-05-06T13:53:16.388Z,56
2023-05-06T13:53:16.805Z,56
2023-05-06T13:54:23.401Z,56
2023-05-06T13:55:30.543Z,56
2023-05-06T13:56:37.684Z,56
2023-05-06T13:57:44.753Z,57
2023-05-06T13:58:52.325Z,57
2023-05-06T13:59:58.418Z,57
2023-05-06T14:01:05.554Z,58
2023-05-06T14:02:12.633Z,58
2023-05-06T14:03:19.740Z,58
2023-05-06T14:04:26.921Z,59
2023-05-06T14:05:33.421Z,59
2023-05-06T14:06:40.499Z,60
2023-05-06T14:07:47.635Z,60
2023-05-06T14:10:01.820Z,61
2023-05-06T14:11:08.524Z,62
2023-05-06T14:13:22.758Z,62
2023-05-06T14:14:29.743Z,62
2023-05-06T14:15:36.859Z,62
2023-05-06T14:16:43.424Z,63
2023-05-06T14:17:50.572Z,63
2023-05-06T14:18:57.660Z,63
2023-05-06T14:20:04.785Z,63
2023-05-06T14:21:11.853Z,63
2023-05-06T14:22:18.464Z,63
2023-05-06T14:23:25.585Z,63
2023-05-06T14:24:32.632Z,63
2023-05-06T14:25:39.758Z,63
2023-05-06T14:26:46.902Z,63
2023-05-06T14:27:53.432Z,63
2023-05-06T14:29:00.554Z,63
2023-05-06T14:30:09.282Z,63
2023-05-06T14:31:14.841Z,63
2023-05-06T14:32:21.314Z,63
2023-05-06T14:33:28.514Z,63
2023-05-06T14:34:35.601Z,63
2023-05-06T14:35:42.821Z,63
2023-05-06T14:36:49.789Z,63
2023-05-06T14:37:56.372Z,63
2023-05-06T14:39:03.494Z,63
2023-05-06T14:40:10.552Z,63
2023-05-06T14:41:17.703Z,63
2023-05-06T14:42:24.815Z,63
2023-05-06T14:43:31.396Z,63
2023-05-06T14:44:38.525Z,63
2023-05-06T14:45:45.678Z,63
2023-05-06T14:46:52.747Z,63
2023-05-06T14:49:06.402Z,63
2023-05-06T14:50:13.499Z,64
2023-05-06T14:51:20.558Z,64
2023-05-06T14:52:27.691Z,64
2023-05-06T14:55:48.513Z,63
2023-05-06T15:02:31.192Z,63
2023-05-06T15:03:37.718Z,63
2023-05-06T15:04:44.818Z,63
2023-05-06T15:05:51.417Z,63
2023-05-06T15:08:05.644Z,64
2023-05-06T15:10:19.346Z,64
2023-05-06T15:11:26.382Z,64
2023-05-06T15:12:33.645Z,64
2023-05-06T15:13:40.717Z,65
2023-05-06T15:14:47.761Z,65
2023-05-06T15:15:54.263Z,65
2023-05-06T15:17:01.471Z,65
2023-05-06T15:18:08.676Z,65
2023-05-06T15:19:15.634Z,65
2023-05-06T15:20:22.820Z,66
2023-05-06T15:21:29.369Z,66
2023-05-06T15:22:38.747Z,66
2023-05-06T15:23:43.755Z,66
2023-05-06T15:24:50.637Z,66
2023-05-06T15:25:57.747Z,67
2023-05-06T15:27:04.858Z,67
2023-05-06T15:28:11.394Z,67
2023-05-06T15:29:18.561Z,67
2023-05-06T15:30:25.712Z,67
2023-05-06T15:31:32.791Z,67
2023-05-06T15:32:39.416Z,67
2023-05-06T15:33:46.440Z,67
2023-05-06T15:36:00.633Z,67
2023-05-06T15:38:14.298Z,67
2023-05-06T15:39:21.434Z,67
2023-05-06T15:40:28.561Z,67
2023-05-06T15:41:35.713Z,68
2023-05-06T15:42:42.720Z,68
2023-05-06T15:44:56.456Z,68
2023-05-06T15:46:03.612Z,68
2023-05-06T15:47:10.652Z,69
2023-05-06T15:48:17.790Z,69
2023-05-06T15:49:46.811Z,69
2023-05-06T15:50:33.694Z,69
2023-05-06T15:51:38.575Z,69
2023-05-06T15:52:45.648Z,69
2023-05-06T15:53:52.738Z,70
2023-05-06T15:55:00.039Z,70
2023-05-06T15:56:13.450Z,70
2023-05-06T15:57:14.919Z,70
2023-05-06T15:58:20.684Z,70
2023-05-06T15:59:27.776Z,70
2023-05-06T16:00:34.339Z,70
2023-05-06T16:02:48.820Z,70
2023-05-06T16:03:55.878Z,70
2023-05-06T16:05:02.946Z,71
2023-05-06T16:06:09.929Z,71
2023-05-06T16:07:16.494Z,71
2023-05-06T16:08:23.644Z,71
2023-05-06T16:09:30.688Z,71
2023-05-06T16:10:37.312Z,72
2023-05-06T16:11:44.381Z,72
2023-05-06T16:12:51.513Z,72
2023-05-06T16:13:58.609Z,72
2023-05-06T16:15:05.727Z,72
2023-05-06T16:17:19.402Z,73
2023-05-06T16:18:26.513Z,73
2023-05-06T16:19:33.602Z,73
2023-05-06T16:20:40.694Z,73
2023-05-06T16:21:47.310Z,73
2023-05-06T16:22:54.363Z,73
2023-05-06T16:24:01.495Z,74
2023-05-06T16:25:08.611Z,74
2023-05-06T16:26:15.735Z,74
2023-05-06T16:27:22.263Z,74
2023-05-06T16:28:29.425Z,74
2023-05-06T16:29:36.522Z,74
2023-05-06T16:30:43.622Z,74
2023-05-06T16:31:50.728Z,75
2023-05-06T16:32:57.369Z,75
2023-05-06T16:34:04.392Z,75
2023-05-06T16:35:11.498Z,75
2023-05-06T16:36:18.647Z,75
2023-05-06T16:37:25.741Z,75
2023-05-06T16:38:32.306Z,75
2023-05-06T16:39:39.420Z,75
2023-05-06T16:40:46.550Z,75
2023-05-06T16:41:53.605Z,75
2023-05-06T16:43:00.716Z,75
2023-05-06T16:44:07.465Z,75
2023-05-06T16:45:14.403Z,76
2023-05-06T16:46:24.168Z,76
2023-05-06T16:47:28.784Z,76
2023-05-06T16:48:35.886Z,76
2023-05-06T16:49:43.009Z,76
2023-05-06T16:50:49.472Z,76
2023-05-06T16:51:56.544Z,76
2023-05-06T16:53:03.693Z,77
2023-05-06T16:54:10.751Z,77
2023-05-06T16:55:17.343Z,77
2023-05-06T16:56:26.524Z,77
2023-05-06T17:00:52.401Z,77
2023-05-06T17:01:59.478Z,77
2023-05-06T17:03:06.754Z,77
2023-05-06T17:04:13.682Z,78
2023-05-06T17:05:22.160Z,78
2023-05-06T17:06:27.370Z,78
2023-05-06T17:07:34.429Z,78
2023-05-06T17:08:41.546Z,78
2023-05-06T17:09:49.215Z,78
2023-05-06T17:10:55.813Z,78
2023-05-06T17:16:30.784Z,79
2023-05-06T17:17:37.346Z,79
2023-05-06T17:18:44.454Z,79
2023-05-06T17:19:51.592Z,79
2023-05-06T17:20:58.694Z,79
2023-05-06T17:22:05.270Z,80
2023-05-06T17:23:12.369Z,79
2023-05-06T17:25:26.714Z,80
2023-05-06T17:27:40.301Z,80
2023-05-06T17:28:47.356Z,80
2023-05-06T17:29:54.489Z,81
2023-05-06T17:31:01.718Z,81
2023-05-06T17:32:11.109Z,81
2023-05-06T17:33:15.311Z,81
2023-05-06T17:35:29.481Z,81
2023-05-06T17:36:36.633Z,81
2023-05-06T17:37:43.681Z,81
2023-05-06T17:39:57.362Z,81
2023-05-06T17:41:04.461Z,81
2023-05-06T17:42:12.130Z,81
2023-05-06T17:43:18.733Z,81
2023-05-06T17:44:25.306Z,82
2023-05-06T17:45:32.383Z,81
2023-05-06T17:46:39.605Z,82
2023-05-06T17:47:46.638Z,82
2023-05-06T17:48:53.720Z,82
2023-05-06T17:50:00.310Z,82
2023-05-06T17:51:07.570Z,82
2023-05-06T17:52:14.475Z,82
2023-05-06T17:53:21.631Z,82
2023-05-06T17:54:28.737Z,82
2023-05-06T17:55:35.315Z,82
2023-05-06T17:56:43.449Z,82
2023-05-06T17:57:49.536Z,82
2023-05-06T17:58:56.638Z,82
2023-05-06T18:00:03.716Z,82
2023-05-06T18:01:10.348Z,82
2023-05-06T18:02:17.432Z,82
2023-05-06T18:03:24.714Z,82
2023-05-06T18:04:31.626Z,82
2023-05-06T18:05:38.746Z,82
2023-05-06T18:06:45.345Z,82
2023-05-06T18:07:52.409Z,82
2023-05-06T18:08:59.536Z,82
2023-05-06T18:10:06.707Z,82
2023-05-06T18:11:13.781Z,82
2023-05-06T18:12:20.321Z,82
2023-05-06T18:13:28.004Z,82
2023-05-06T18:14:34.560Z,82
2023-05-06T18:15:41.620Z,82
2023-05-06T18:16:48.773Z,82
2023-05-06T18:17:55.379Z,82
2023-05-06T18:19:02.499Z,82
2023-05-06T18:20:09.572Z,82
2023-05-06T18:21:16.662Z,82
2023-05-06T18:22:23.742Z,82
2023-05-06T18:23:30.319Z,82
2023-05-06T18:24:37.482Z,82
2023-05-06T18:25:44.539Z,82
2023-05-06T18:26:51.627Z,82
2023-05-06T18:27:58.790Z,82
2023-05-06T18:29:05.395Z,82
2023-05-06T18:30:12.453Z,82
2023-05-06T18:31:19.643Z,82
2023-05-06T18:32:26.746Z,82
2023-05-06T18:33:33.250Z,82
2023-05-06T18:34:40.365Z,82
2023-05-06T18:35:47.491Z,82
2023-05-06T18:36:54.587Z,82
2023-05-06T18:38:01.156Z,82
2023-05-06T18:39:08.267Z,82
2023-05-06T18:40:15.395Z,82
2023-05-06T18:41:22.533Z,82
2023-05-06T18:42:29.562Z,82
2023-05-06T18:43:36.756Z,82
2023-05-06T18:44:43.234Z,82
2023-05-06T18:45:50.385Z,82
2023-05-06T18:46:57.501Z,82
2023-05-06T18:48:04.621Z,82
2023-05-06T18:49:11.668Z,82
2023-05-06T18:50:18.279Z,82
2023-05-06T18:51:25.433Z,82
2023-05-06T18:52:32.501Z,82
2023-05-06T18:53:39.614Z,82
2023-05-06T18:54:46.708Z,82
2023-05-06T18:55:53.275Z,82
2023-05-06T18:57:00.430Z,82
2023-05-06T18:58:07.501Z,82
2023-05-06T18:59:14.584Z,82
2023-05-06T19:00:21.695Z,82
2023-05-06T19:01:28.427Z,82
2023-05-06T19:02:35.433Z,82
2023-05-06T19:03:42.537Z,82
2023-05-06T19:04:49.615Z,82
2023-05-06T19:05:56.803Z,82
2023-05-06T19:07:03.312Z,82
2023-05-06T19:08:10.407Z,82
2023-05-06T19:09:17.546Z,82
2023-05-06T19:10:25.236Z,82
2023-05-06T19:11:31.869Z,82
2023-05-06T19:12:38.323Z,82
2023-05-06T19:13:45.433Z,82
2023-05-06T19:14:52.542Z,82
2023-05-06T19:15:59.636Z,82
2023-05-06T19:17:06.916Z,82
2023-05-06T19:18:13.326Z,82
2023-05-06T19:19:20.956Z,82
2023-05-06T19:20:27.554Z,82
2023-05-06T19:21:34.642Z,82
2023-05-06T19:22:41.215Z,82